Volin, South Dakota
Current Conditions -  °F | °C
As of 8:15 AM on Thursday 27 Nov 2014 (Local Time) from KYKN Reporting Station
Overcast Overcast  
Wind Chill: -2°   Ceiling: 3600
Heat Index:   Visibility: 10mi
Dew Point: -2°   Wind: 5mph
Humidity: 67%   Direction: 110°ESE
Pressure: 30.51"   Gusts: NA
Location:  42.96°N, 97.18°W
Report Text: KYKN 271415Z AUTO 11004KT 10SM OVC036 M14/M19 A3051 RMK AO1
Loading
Personal Weather Stations






























Interactive Weather Map New forecast layout! Learn more

10-Day Weather Forecast

Advertisements
Track Severe Weather on mobile